createdAt,value
2019-03-25T00:07:07.020Z,4.32
2019-03-25T00:08:03.170Z,4.41
2019-03-25T00:09:04.767Z,4.49
2019-03-25T00:09:56.623Z,4.49
2019-03-25T00:10:55.618Z,4.52
2019-03-25T00:11:55.607Z,4.50
2019-03-25T00:12:55.611Z,4.60
2019-03-25T00:13:55.583Z,4.67
2019-03-25T00:14:55.575Z,4.70
2019-03-25T00:15:56.569Z,4.87
2019-03-25T00:16:55.562Z,4.94
2019-03-25T00:17:55.561Z,4.97
2019-03-25T00:18:55.558Z,4.97
2019-03-25T00:19:55.523Z,5.04
2019-03-25T00:20:55.516Z,5.00
2019-03-25T00:21:55.497Z,5.02
2019-03-25T00:22:55.506Z,5.08
2019-03-25T00:23:55.494Z,5.02
2019-03-25T00:24:55.484Z,5.02
2019-03-25T00:25:55.457Z,5.00
2019-03-25T00:26:55.449Z,4.94
2019-03-25T00:27:55.432Z,4.97
2019-03-25T00:28:55.423Z,4.92
2019-03-25T00:29:55.438Z,4.77
2019-03-25T05:00:42.448Z,5.90
2019-03-25T05:01:42.430Z,5.91
2019-03-25T05:02:42.443Z,5.94
2019-03-25T05:03:42.408Z,5.91
2019-03-25T05:04:42.417Z,5.99
2019-03-25T05:05:42.437Z,5.99
2019-03-25T05:06:42.379Z,6.05
2019-03-25T05:07:42.371Z,6.09
2019-03-25T05:08:42.382Z,6.19
2019-03-25T05:09:42.346Z,6.14
2019-03-25T05:10:42.332Z,6.16
2019-03-25T05:12:32.579Z,6.28
2019-03-25T05:13:32.557Z,6.31
2019-03-25T05:14:32.564Z,6.16
2019-03-25T05:15:32.539Z,6.27
2019-03-25T05:16:32.531Z,6.26
2019-03-25T05:17:32.528Z,6.33
2019-03-25T05:18:32.508Z,6.24
2019-03-25T05:19:32.514Z,6.41
2019-03-25T05:20:32.483Z,6.24
2019-03-25T05:21:32.494Z,6.35
2019-03-25T05:22:32.462Z,6.35
2019-03-25T05:23:32.458Z,6.44
2019-03-25T05:24:32.470Z,6.33
2019-03-25T05:25:32.460Z,6.45
2019-03-25T05:26:32.424Z,6.44
2019-03-25T05:27:32.416Z,6.38
2019-03-25T05:28:32.403Z,6.48
2019-03-25T05:29:32.396Z,6.49
2019-03-25T05:30:32.438Z,6.45
2019-03-25T05:31:32.498Z,6.45
2019-03-25T05:32:32.358Z,6.49
2019-03-25T05:33:32.385Z,6.56
2019-03-25T05:34:32.342Z,6.49
2019-03-25T05:35:32.329Z,6.49
2019-03-25T05:36:32.321Z,6.46
2019-03-25T05:37:32.314Z,6.54
2019-03-25T05:38:32.297Z,6.57
2019-03-25T05:39:32.325Z,6.57
2019-03-25T05:40:32.274Z,6.52
2019-03-25T05:41:32.262Z,6.42
2019-03-25T05:42:32.264Z,6.48
2019-03-25T05:43:32.269Z,6.46
2019-03-25T05:44:32.238Z,6.45
2019-03-25T05:45:32.222Z,6.45
2019-03-25T05:46:32.211Z,6.49
2019-03-25T05:47:32.246Z,6.56
2019-03-25T05:48:32.197Z,6.48
2019-03-25T05:49:32.199Z,6.56
2019-03-25T05:50:39.202Z,6.49
2019-03-25T05:51:32.155Z,6.48
2019-03-25T05:52:39.186Z,6.56
2019-03-25T05:53:32.147Z,6.56
2019-03-25T05:54:39.181Z,6.49
2019-03-25T05:55:32.124Z,6.56
2019-03-25T05:56:32.106Z,6.57
2019-03-25T05:57:32.094Z,6.48
2019-03-25T05:58:32.082Z,6.45
2019-03-25T05:59:32.071Z,6.54
2019-03-25T06:00:32.082Z,6.45
2019-03-25T06:01:32.058Z,6.57
2019-03-25T06:02:32.048Z,6.52
2019-03-25T06:03:32.036Z,6.54
2019-03-25T06:04:32.061Z,6.59
2019-03-25T06:05:32.014Z,6.60
2019-03-25T06:06:32.018Z,6.56
2019-03-25T06:07:32.008Z,6.56
2019-03-25T06:08:32.006Z,6.74
2019-03-25T06:09:31.971Z,6.66
2019-03-25T06:10:31.962Z,6.70
2019-03-25T06:11:31.948Z,6.75
2019-03-25T06:12:31.952Z,6.70
2019-03-25T06:13:31.939Z,6.77
2019-03-25T06:14:31.921Z,6.84
2019-03-25T06:15:31.911Z,6.84
2019-03-25T06:16:31.897Z,6.87
2019-03-25T06:17:31.906Z,6.84
2019-03-25T06:18:31.872Z,6.88
2019-03-25T06:19:31.874Z,6.78
2019-03-25T06:20:31.855Z,6.82
2019-03-25T06:21:31.849Z,6.82
2019-03-25T06:22:31.841Z,6.82
2019-03-25T06:23:31.843Z,6.87
2019-03-25T06:24:31.814Z,6.82
2019-03-25T06:25:31.844Z,6.85
2019-03-25T06:26:31.790Z,7.03
2019-03-25T06:27:31.790Z,7.14
2019-03-25T06:28:31.790Z,7.17
2019-03-25T06:29:32.118Z,7.18
2019-03-25T06:30:31.749Z,7.35
2019-03-25T06:31:31.744Z,7.42
2019-03-25T06:32:31.729Z,7.48
2019-03-25T06:33:31.738Z,7.42
2019-03-25T06:34:31.711Z,7.60
2019-03-25T06:35:31.697Z,7.60
2019-03-25T06:36:31.684Z,7.70
2019-03-25T06:37:31.687Z,7.69
2019-03-25T06:38:31.663Z,7.61
2019-03-25T06:39:31.667Z,7.61
2019-03-25T06:40:31.642Z,7.54
2019-03-25T06:41:31.632Z,7.58
2019-03-25T06:42:31.622Z,7.51
2019-03-25T06:43:31.626Z,7.42
2019-03-25T06:44:31.615Z,7.40
2019-03-25T06:45:31.588Z,7.36
2019-03-25T06:46:31.579Z,7.25
2019-03-25T06:47:31.568Z,7.39
2019-03-25T06:48:31.557Z,7.38
2019-03-25T06:49:31.555Z,7.48
2019-03-25T06:50:31.548Z,7.58
2019-03-25T06:51:31.521Z,7.54
2019-03-25T06:52:31.508Z,7.72
2019-03-25T06:53:31.502Z,7.58
2019-03-25T06:54:31.491Z,7.56
2019-03-25T06:55:31.516Z,7.43
2019-03-25T06:56:31.469Z,7.36
2019-03-25T06:57:31.453Z,7.32
2019-03-25T06:58:31.446Z,7.36
2019-03-25T06:59:31.459Z,7.47
2019-03-25T07:00:31.440Z,7.79
2019-03-25T07:01:31.411Z,8.45
2019-03-25T07:02:31.398Z,8.87
2019-03-25T07:03:31.408Z,9.18
2019-03-25T07:04:31.379Z,9.29
2019-03-25T07:05:31.382Z,9.19
2019-03-25T07:06:31.362Z,9.21
2019-03-25T07:07:31.349Z,9.21
2019-03-25T07:08:31.336Z,9.13
2019-03-25T07:09:31.342Z,9.08
2019-03-25T07:10:31.324Z,9.10
2019-03-25T07:11:31.316Z,9.19
2019-03-25T07:12:31.297Z,9.18
2019-03-25T07:13:31.292Z,9.06
2019-03-25T07:14:31.280Z,8.99
2019-03-25T07:15:31.280Z,9.10
2019-03-25T07:16:31.274Z,8.87
2019-03-25T07:17:31.238Z,8.82
2019-03-25T07:18:31.231Z,8.76
2019-03-25T07:19:31.222Z,8.76
2019-03-25T07:20:31.214Z,8.69
2019-03-25T07:21:31.215Z,8.56
2019-03-25T07:22:31.202Z,8.51
2019-03-25T07:23:31.172Z,8.53
2019-03-25T07:24:31.160Z,8.46
2019-03-25T07:25:31.163Z,8.55
2019-03-25T07:26:31.150Z,8.42
2019-03-25T07:27:36.709Z,8.48
2019-03-25T07:28:32.135Z,8.48
2019-03-25T07:29:31.114Z,8.48
2019-03-25T07:30:31.094Z,8.51
2019-03-25T07:31:31.091Z,8.42
2019-03-25T07:32:31.097Z,8.33
2019-03-25T07:33:31.114Z,8.38
2019-03-25T07:34:31.054Z,8.33
2019-03-25T07:35:31.040Z,8.16
2019-03-25T07:36:31.034Z,8.12
2019-03-25T07:37:31.023Z,8.06
2019-03-25T07:38:31.045Z,8.06
2019-03-25T07:39:31.029Z,8.05
2019-03-25T07:40:31.017Z,8.08
2019-03-25T07:41:30.977Z,8.13
2019-03-25T07:42:30.968Z,8.15
2019-03-25T07:43:30.957Z,8.20
2019-03-25T07:44:30.970Z,8.31
2019-03-25T07:45:30.939Z,8.33
2019-03-25T07:46:30.930Z,8.45
2019-03-25T07:47:30.926Z,8.61
2019-03-25T07:48:30.901Z,9.06
2019-03-25T07:49:30.894Z,9.16
2019-03-25T07:50:30.902Z,9.23
2019-03-25T07:51:30.871Z,9.32
2019-03-25T07:52:30.858Z,9.37
2019-03-25T07:53:30.854Z,9.40
2019-03-25T07:54:30.856Z,9.26
2019-03-25T07:55:30.842Z,9.31
2019-03-25T07:56:30.837Z,9.25
2019-03-25T07:57:30.808Z,9.18
2019-03-25T07:58:30.901Z,9.23
2019-03-25T07:59:30.795Z,9.21
2019-03-25T08:00:30.830Z,9.39
2019-03-25T08:01:30.786Z,9.37
2019-03-25T08:02:30.757Z,9.44
2019-03-25T08:03:30.754Z,9.65
2019-03-25T08:04:30.730Z,10.01
2019-03-25T08:05:30.744Z,10.22
2019-03-25T08:06:30.740Z,10.31
2019-03-25T08:07:30.703Z,10.23
2019-03-25T08:08:30.705Z,10.17
2019-03-25T08:09:30.700Z,10.17
2019-03-25T08:10:38.231Z,10.19
2019-03-25T08:32:18.661Z,10.44
2019-03-25T08:42:33.963Z,9.47
2019-03-25T08:45:14.513Z,9.23
2019-03-25T08:46:13.260Z,9.10
2019-03-25T08:48:37.177Z,8.84
2019-03-25T08:56:48.119Z,8.30
2019-03-25T08:59:28.374Z,8.51
2019-03-25T09:21:37.188Z,9.22
2019-03-25T09:24:37.275Z,10.96
2019-03-25T09:25:38.277Z,11.45
2019-03-25T09:26:37.199Z,11.48
2019-03-25T09:27:37.116Z,11.43
2019-03-25T09:28:37.132Z,11.17
2019-03-25T10:24:13.504Z,10.78
2019-03-25T10:45:17.947Z,7.85
2019-03-25T10:47:43.698Z,8.18
2019-03-25T10:48:35.212Z,8.58
2019-03-25T10:53:45.576Z,9.84
2019-03-25T10:58:50.709Z,10.46
2019-03-25T10:59:57.201Z,10.75
2019-03-25T11:07:54.947Z,11.70
2019-03-25T11:14:56.803Z,14.37
2019-03-25T11:20:13.586Z,12.25
2019-03-25T11:26:09.884Z,9.91
2019-03-25T11:28:22.986Z,10.34
2019-03-25T11:32:39.799Z,11.12
2019-03-25T11:41:58.889Z,11.45
2019-03-25T11:42:51.483Z,11.51
2019-03-25T11:58:41.583Z,12.00
2019-03-25T12:29:15.197Z,15.73
2019-03-25T12:30:15.173Z,15.86
2019-03-25T12:31:15.171Z,16.24
2019-03-25T12:32:15.153Z,16.31
2019-03-25T12:33:15.166Z,16.39
2019-03-25T12:34:15.213Z,16.05
2019-03-25T12:35:15.124Z,15.61
2019-03-25T12:36:15.111Z,15.29
2019-03-25T12:37:15.098Z,14.77
2019-03-25T12:38:15.108Z,14.18
2019-03-25T12:39:15.100Z,13.74
2019-03-25T12:40:15.087Z,13.22
2019-03-25T12:41:15.055Z,12.80
2019-03-25T12:42:15.042Z,12.25
2019-03-25T12:43:15.035Z,11.88
2019-03-25T12:44:15.068Z,11.48
2019-03-25T12:45:15.018Z,11.08
2019-03-25T12:46:15.007Z,10.79
2019-03-25T12:47:14.997Z,10.57
2019-03-25T12:48:14.982Z,10.46
2019-03-25T12:49:14.971Z,10.34
2019-03-25T12:50:14.984Z,10.33
2019-03-25T12:51:14.996Z,10.33
2019-03-25T12:52:14.938Z,10.86
2019-03-25T12:53:14.927Z,11.27
2019-03-25T12:54:14.923Z,11.69
2019-03-25T12:55:14.927Z,11.72
2019-03-25T12:56:14.896Z,11.77
2019-03-25T12:57:14.885Z,11.78
2019-03-25T12:58:14.877Z,11.63
2019-03-25T12:59:14.865Z,11.75
2019-03-25T13:00:14.879Z,11.77
2019-03-25T13:01:14.869Z,11.69
2019-03-25T13:02:14.834Z,11.66
2019-03-25T13:03:14.819Z,11.63
2019-03-25T13:04:14.809Z,11.60
2019-03-25T13:05:14.841Z,11.63
2019-03-25T13:06:14.793Z,11.88
2019-03-25T13:07:14.783Z,11.78
2019-03-25T13:08:14.786Z,11.80
2019-03-25T13:09:14.780Z,11.84
2019-03-25T13:10:14.743Z,12.02
2019-03-25T13:11:14.738Z,12.13
2019-03-25T13:12:14.725Z,12.29
2019-03-25T13:13:14.727Z,12.25
2019-03-25T13:14:14.703Z,12.49
2019-03-25T13:15:14.722Z,12.50
2019-03-25T13:16:14.681Z,12.57
2019-03-25T13:17:14.670Z,12.65
2019-03-25T13:18:14.664Z,12.79
2019-03-25T13:19:14.654Z,12.72
2019-03-25T13:20:14.731Z,12.80
2019-03-25T13:21:14.632Z,12.91
2019-03-25T13:22:14.614Z,12.98
2019-03-25T13:23:14.605Z,13.15
2019-03-25T13:24:14.624Z,13.77
2019-03-25T13:25:14.613Z,14.12
2019-03-25T13:26:14.576Z,14.44
2019-03-25T13:27:14.575Z,14.50
2019-03-25T13:28:14.562Z,14.41
2019-03-25T13:29:14.545Z,14.22
2019-03-25T13:30:14.532Z,14.22
2019-03-25T13:31:14.547Z,14.07
2019-03-25T13:32:14.508Z,13.96
2019-03-25T13:33:14.498Z,13.85
2019-03-25T13:34:14.490Z,13.78
2019-03-25T13:35:14.475Z,13.85
2019-03-25T13:36:14.510Z,13.62
2019-03-25T13:37:14.463Z,13.53
2019-03-25T13:38:14.445Z,13.33
2019-03-25T13:39:14.439Z,13.00
2019-03-25T13:40:14.452Z,12.93
2019-03-25T13:41:14.428Z,12.79
2019-03-25T13:42:14.398Z,12.80
2019-03-25T13:43:14.400Z,12.61
2019-03-25T13:44:14.397Z,12.72
2019-03-25T13:45:14.378Z,12.76
2019-03-25T13:46:14.367Z,12.68
2019-03-25T13:47:14.350Z,12.53
2019-03-25T13:48:14.334Z,12.42
2019-03-25T13:49:14.326Z,12.21
2019-03-25T13:50:14.342Z,11.95
2019-03-25T13:51:14.346Z,11.63
2019-03-25T13:52:14.316Z,11.29
2019-03-25T13:53:14.277Z,11.12
2019-03-25T13:54:14.266Z,10.90
2019-03-25T13:55:14.272Z,10.76
2019-03-25T13:56:14.283Z,10.64
2019-03-25T13:57:14.237Z,10.59
2019-03-25T13:58:14.245Z,10.48
2019-03-25T13:59:14.211Z,10.40
2019-03-25T14:00:14.205Z,10.25
2019-03-25T14:01:14.200Z,10.16
2019-03-25T14:02:14.187Z,9.89
2019-03-25T14:03:14.197Z,9.79
2019-03-25T14:04:14.166Z,9.66
2019-03-25T14:05:14.162Z,9.61
2019-03-25T14:06:14.140Z,9.44
2019-03-25T14:07:14.126Z,9.44
2019-03-25T14:08:14.119Z,9.51
2019-03-25T14:09:14.136Z,9.44
2019-03-25T14:10:14.100Z,9.31
2019-03-25T14:11:14.097Z,9.51
2019-03-25T14:12:14.080Z,9.68
2019-03-25T14:13:14.065Z,9.56
2019-03-25T14:14:14.058Z,9.66
2019-03-25T14:15:14.060Z,9.69
2019-03-25T14:16:14.039Z,9.68
2019-03-25T14:17:14.023Z,9.62
2019-03-25T14:18:14.010Z,9.65
2019-03-25T14:19:14.014Z,9.74
2019-03-25T14:20:14.002Z,9.84
2019-03-25T14:21:13.982Z,10.09
2019-03-25T14:22:13.982Z,10.34
2019-03-25T14:23:13.968Z,10.46
2019-03-25T14:24:13.973Z,10.64
2019-03-25T14:25:13.940Z,11.08
2019-03-25T14:26:13.935Z,11.26
2019-03-25T14:27:13.915Z,11.27
2019-03-25T14:28:13.918Z,11.23
2019-03-25T14:29:13.898Z,11.10
2019-03-25T14:30:15.009Z,10.92
2019-03-25T14:31:13.897Z,10.79
2019-03-25T14:32:13.870Z,10.64
2019-03-25T14:33:13.856Z,10.81
2019-03-25T14:34:14.636Z,10.94
2019-03-25T14:35:13.851Z,11.14
2019-03-25T14:36:13.825Z,11.41
2019-03-25T14:37:13.828Z,11.41
2019-03-25T14:38:13.795Z,11.30
2019-03-25T14:39:13.785Z,11.10
2019-03-25T14:40:13.775Z,10.81
2019-03-25T14:41:13.792Z,10.60
2019-03-25T14:42:13.755Z,10.61
2019-03-25T14:43:13.762Z,10.64
2019-03-25T14:44:13.749Z,11.00
2019-03-25T14:45:13.724Z,11.52
2019-03-25T14:46:13.740Z,11.72
2019-03-25T14:47:13.705Z,12.02
2019-03-25T14:48:13.696Z,12.06
2019-03-25T14:49:13.680Z,12.20
2019-03-25T14:50:13.671Z,12.18
2019-03-25T14:51:13.679Z,12.25
2019-03-25T14:52:13.654Z,12.15
2019-03-25T14:53:13.675Z,11.88
2019-03-25T14:54:13.648Z,11.62
2019-03-25T14:55:13.617Z,11.32
2019-03-25T14:56:13.610Z,11.11
2019-03-25T14:57:13.611Z,10.96
2019-03-25T14:58:13.582Z,11.14
2019-03-25T14:59:13.573Z,11.45
2019-03-25T15:00:13.567Z,11.43
2019-03-25T15:01:13.558Z,11.48
2019-03-25T15:02:13.550Z,11.66
2019-03-25T15:03:13.555Z,12.10
2019-03-25T15:04:13.515Z,12.27
2019-03-25T15:05:13.512Z,12.47
2019-03-25T15:06:13.502Z,12.65
2019-03-25T15:07:13.510Z,12.83
2019-03-25T15:08:13.518Z,12.79
2019-03-25T15:09:13.471Z,12.85
2019-03-25T15:10:13.453Z,12.85
2019-03-25T15:11:13.446Z,12.72
2019-03-25T15:12:13.440Z,12.60
2019-03-25T15:13:13.450Z,12.29
2019-03-25T15:14:13.433Z,12.06
2019-03-25T15:15:13.400Z,11.81
2019-03-25T15:16:13.397Z,11.90
2019-03-25T15:17:13.379Z,12.31
2019-03-25T15:18:15.873Z,12.83
2019-03-25T15:19:13.373Z,12.90
2019-03-25T15:20:13.348Z,13.19
2019-03-25T15:21:13.340Z,13.27
2019-03-25T15:22:13.322Z,13.31
2019-03-25T15:23:13.315Z,13.18
2019-03-25T15:24:13.342Z,13.00
2019-03-25T15:25:13.293Z,12.83
2019-03-25T15:26:13.282Z,12.91
2019-03-25T15:27:13.295Z,12.68
2019-03-25T15:28:13.261Z,12.46
2019-03-25T15:29:13.251Z,12.15
2019-03-25T15:30:13.237Z,11.94
2019-03-25T15:31:13.229Z,11.73
2019-03-25T15:32:13.213Z,11.54
2019-03-25T15:33:13.228Z,11.29
2019-03-25T15:34:13.198Z,11.15
2019-03-25T15:35:13.199Z,11.11
2019-03-25T15:36:13.178Z,10.86
2019-03-25T15:37:13.165Z,10.67
2019-03-25T15:38:13.170Z,10.53
2019-03-25T15:39:13.141Z,10.46
2019-03-25T15:40:13.200Z,10.34
2019-03-25T15:41:13.117Z,10.25
2019-03-25T15:42:13.119Z,10.15
2019-03-25T15:43:13.095Z,10.04
2019-03-25T15:44:13.100Z,9.84
2019-03-25T15:45:13.097Z,9.69
2019-03-25T15:46:13.068Z,9.56
2019-03-25T15:47:13.093Z,9.43
2019-03-25T15:48:13.051Z,9.47
2019-03-25T15:49:13.061Z,9.31
2019-03-25T15:50:13.025Z,9.32
2019-03-25T15:51:13.016Z,9.21
2019-03-25T15:52:13.002Z,9.23
2019-03-25T15:53:12.988Z,9.04
2019-03-25T15:54:12.976Z,9.22
2019-03-25T15:55:12.990Z,9.40
2019-03-25T15:56:12.953Z,9.55
2019-03-25T15:57:12.951Z,9.64
2019-03-25T15:58:12.951Z,9.66
2019-03-25T15:59:12.935Z,9.59
2019-03-25T16:00:12.944Z,9.54
2019-03-25T16:01:12.900Z,9.37
2019-03-25T16:02:12.893Z,9.28
2019-03-25T16:03:12.879Z,9.11
2019-03-25T16:04:12.879Z,9.06
2019-03-25T16:05:12.886Z,8.87
2019-03-25T16:06:12.849Z,8.87
2019-03-25T16:07:12.838Z,8.76
2019-03-25T16:08:12.825Z,8.74
2019-03-25T16:09:12.817Z,8.55
2019-03-25T16:10:12.820Z,8.66
2019-03-25T16:11:12.821Z,8.58
2019-03-25T16:12:12.787Z,8.49
2019-03-25T16:13:20.385Z,8.56
2019-03-25T16:14:20.299Z,8.55
2019-03-25T16:15:20.284Z,8.51
2019-03-25T16:16:20.299Z,8.53
2019-03-25T16:17:20.266Z,8.70
2019-03-25T16:18:19.781Z,8.89
2019-03-25T16:19:12.710Z,9.02
2019-03-25T16:20:12.700Z,9.19
2019-03-25T16:21:12.688Z,9.37
2019-03-25T16:22:12.695Z,9.36
2019-03-25T16:23:12.665Z,9.56
2019-03-25T16:24:12.653Z,9.54
2019-03-25T16:25:12.673Z,9.50
2019-03-25T16:26:12.639Z,9.50
2019-03-25T16:27:12.624Z,9.36
2019-03-25T16:28:12.640Z,9.39
2019-03-25T16:29:12.611Z,9.23
2019-03-25T16:30:12.613Z,9.26
2019-03-25T16:31:12.581Z,9.16
2019-03-25T16:32:12.575Z,9.11
2019-03-25T16:33:12.559Z,9.14
2019-03-25T16:34:12.589Z,9.08
2019-03-25T16:35:12.569Z,8.99
2019-03-25T16:36:12.554Z,8.84
2019-03-25T16:37:12.532Z,8.88
2019-03-25T16:38:12.511Z,8.82
2019-03-25T16:39:12.496Z,8.81
2019-03-25T16:40:12.507Z,8.76
2019-03-25T16:41:12.473Z,8.85
2019-03-25T16:42:12.468Z,8.71
2019-03-25T16:43:12.462Z,8.79
2019-03-25T16:44:12.455Z,8.74
2019-03-25T16:45:12.428Z,8.74
2019-03-25T16:46:12.434Z,8.73
2019-03-25T16:47:12.421Z,8.73
2019-03-25T16:48:12.422Z,8.81
2019-03-25T16:49:12.396Z,8.78
2019-03-25T16:50:12.377Z,8.71
2019-03-25T16:51:12.365Z,8.69
2019-03-25T16:52:12.382Z,8.56
2019-03-25T16:53:12.358Z,8.51
2019-03-25T16:54:12.349Z,8.46
2019-03-25T16:55:12.322Z,8.60
2019-03-25T16:56:12.322Z,8.58
2019-03-25T16:57:12.309Z,8.55
2019-03-25T16:58:12.299Z,8.52
2019-03-25T16:59:12.306Z,8.48
2019-03-25T17:00:12.272Z,8.46
2019-03-25T17:01:12.262Z,8.53
2019-03-25T17:02:12.250Z,8.53
2019-03-25T17:03:12.241Z,8.38
2019-03-25T17:04:12.251Z,8.46
2019-03-25T17:05:12.241Z,8.53
2019-03-25T17:06:12.206Z,8.51
2019-03-25T17:07:12.196Z,8.46
2019-03-25T17:08:12.181Z,8.51
2019-03-25T17:09:12.179Z,8.55
2019-03-25T17:10:12.188Z,8.49
2019-03-25T17:11:12.249Z,8.51
2019-03-25T17:12:12.146Z,8.48
2019-03-25T17:13:12.135Z,8.51
2019-03-25T17:14:12.121Z,8.42
2019-03-25T17:15:12.111Z,8.45
2019-03-25T17:16:12.117Z,8.46
2019-03-25T17:17:12.085Z,8.37
2019-03-25T17:18:12.080Z,8.30
2019-03-25T17:19:12.067Z,8.31
2019-03-25T17:20:12.056Z,8.38
2019-03-25T17:21:12.064Z,8.36
2019-03-25T17:22:12.068Z,8.38
2019-03-25T17:23:12.025Z,8.36
2019-03-25T17:24:14.099Z,8.27
2019-03-25T17:25:12.011Z,8.27
2019-03-25T17:26:12.011Z,8.37
2019-03-25T17:27:11.995Z,8.30
2019-03-25T17:28:11.967Z,8.20
2019-03-25T17:29:11.963Z,8.19
2019-03-25T17:30:11.956Z,8.18
2019-03-25T17:31:20.569Z,8.26
2019-03-25T17:32:12.957Z,8.12
2019-03-25T17:33:11.921Z,8.19
2019-03-25T17:34:11.944Z,8.13
2019-03-25T17:35:11.904Z,8.12
2019-03-25T17:36:11.900Z,8.18
2019-03-25T17:37:11.891Z,8.15
2019-03-25T17:38:11.912Z,8.08
2019-03-25T17:39:11.854Z,8.09
2019-03-25T17:40:11.883Z,8.06
2019-03-25T17:41:11.836Z,8.05
2019-03-25T17:42:11.824Z,8.03
2019-03-25T17:43:11.836Z,7.97
2019-03-25T17:44:11.801Z,8.00
2019-03-25T17:45:11.791Z,7.93
2019-03-25T17:46:11.783Z,7.98
2019-03-25T17:47:11.801Z,8.03
2019-03-25T17:48:11.784Z,8.00
2019-03-25T17:49:11.749Z,8.00
2019-03-25T17:50:11.755Z,8.01
2019-03-25T17:51:11.734Z,8.03
2019-03-25T17:52:11.711Z,7.97
2019-03-25T17:53:11.712Z,7.94
2019-03-25T17:54:11.707Z,7.93
2019-03-25T17:55:11.685Z,7.88
2019-03-25T17:56:11.692Z,7.93
2019-03-25T17:57:11.666Z,7.93
2019-03-25T17:58:11.650Z,7.91
2019-03-25T17:59:11.639Z,7.88
2019-03-25T18:00:11.640Z,7.90
2019-03-25T18:01:11.640Z,7.91
2019-03-25T18:02:11.621Z,7.91
2019-03-25T18:03:11.608Z,7.98
2019-03-25T18:04:11.583Z,7.83
2019-03-25T18:05:11.671Z,7.87
2019-03-25T18:06:11.575Z,7.85
2019-03-25T18:07:11.559Z,7.82
2019-03-25T18:08:11.546Z,7.88
2019-03-25T18:09:11.539Z,7.88
2019-03-25T18:10:11.524Z,7.90
2019-03-25T18:11:11.558Z,7.93
2019-03-25T18:12:11.501Z,7.94
2019-03-25T18:13:21.771Z,7.85
2019-03-25T18:14:12.481Z,7.88
2019-03-25T18:15:11.477Z,7.82
2019-03-25T18:16:11.464Z,7.79
2019-03-25T18:17:11.462Z,7.80
2019-03-25T18:18:11.439Z,7.79
2019-03-25T18:19:11.428Z,7.73
2019-03-25T18:20:18.547Z,7.70
2019-03-25T18:21:12.404Z,7.67
2019-03-25T18:22:11.415Z,7.83
2019-03-25T18:23:11.384Z,7.85
2019-03-25T18:24:11.385Z,7.73
2019-03-25T18:25:11.366Z,7.85
2019-03-25T18:26:11.358Z,7.79
2019-03-25T18:27:11.368Z,7.76
2019-03-25T18:28:11.333Z,7.70
2019-03-25T18:29:11.336Z,7.75
2019-03-25T18:30:11.314Z,7.73
2019-03-25T18:31:11.298Z,7.80
2019-03-25T18:32:11.314Z,7.75
2019-03-25T18:33:11.287Z,7.70
2019-03-25T18:34:11.308Z,7.63
2019-03-25T18:35:11.254Z,7.63
2019-03-25T18:36:11.249Z,7.50
2019-03-25T18:37:11.263Z,7.53
2019-03-25T18:38:11.232Z,7.47
2019-03-25T18:39:11.227Z,7.56
2019-03-25T18:40:11.212Z,7.45
2019-03-25T18:41:11.198Z,7.47
2019-03-25T18:42:11.185Z,7.42
2019-03-25T18:43:11.226Z,7.35
2019-03-25T18:44:11.160Z,7.47
2019-03-25T18:45:11.164Z,7.31
2019-03-25T18:46:11.146Z,7.38
2019-03-25T18:47:11.142Z,7.36
2019-03-25T18:48:11.142Z,7.38
2019-03-25T18:49:11.111Z,7.33
2019-03-25T18:50:11.107Z,7.23
2019-03-25T18:51:11.091Z,7.21
2019-03-25T18:52:11.081Z,7.28
2019-03-25T18:53:11.076Z,7.28
2019-03-25T18:54:11.069Z,7.21
2019-03-25T18:55:11.042Z,7.23
2019-03-25T18:56:11.036Z,7.18
2019-03-25T18:57:11.030Z,7.20
2019-03-25T18:58:11.054Z,7.18
2019-03-25T18:59:11.021Z,7.07
2019-03-25T19:00:11.003Z,7.10
2019-03-25T19:01:10.983Z,7.18
2019-03-25T19:02:10.988Z,7.17
2019-03-25T19:03:10.981Z,7.17
2019-03-25T19:04:10.949Z,7.20
2019-03-25T19:05:10.945Z,7.07
2019-03-25T19:06:10.966Z,7.15
2019-03-25T19:07:10.938Z,7.23
2019-03-25T19:08:10.948Z,7.20
2019-03-25T19:09:10.902Z,7.20
2019-03-25T19:10:10.907Z,7.31
2019-03-25T19:11:10.883Z,7.28
2019-03-25T19:12:10.872Z,7.28
2019-03-25T19:13:10.859Z,7.23
2019-03-25T19:14:10.860Z,7.35
2019-03-25T19:15:10.829Z,7.35
2019-03-25T19:16:10.847Z,7.31
2019-03-25T19:17:10.820Z,7.36
2019-03-25T19:18:10.821Z,7.32
2019-03-25T19:19:10.822Z,7.38
2019-03-25T19:20:10.798Z,7.38
2019-03-25T19:21:10.794Z,7.33
2019-03-25T19:22:12.745Z,7.38
2019-03-25T19:23:10.753Z,7.42
2019-03-25T19:24:10.759Z,7.43
2019-03-25T19:25:10.758Z,7.39
2019-03-25T19:26:10.744Z,7.35
2019-03-25T19:27:10.703Z,7.47
2019-03-25T19:28:10.718Z,7.36
2019-03-25T19:29:10.695Z,7.42
2019-03-25T19:30:10.700Z,7.38
2019-03-25T19:31:10.709Z,7.40
2019-03-25T19:32:10.653Z,7.39
2019-03-25T19:33:10.648Z,7.39
2019-03-25T19:34:10.631Z,7.38
2019-03-25T19:35:10.620Z,7.40
2019-03-25T19:36:10.623Z,7.45
2019-03-25T19:37:10.648Z,7.47
2019-03-25T19:38:10.638Z,7.45
2019-03-25T19:39:10.585Z,7.43
2019-03-25T19:40:10.575Z,7.38
2019-03-25T19:41:10.573Z,7.40
2019-03-25T19:42:10.583Z,7.42
2019-03-25T19:43:10.584Z,7.47
2019-03-25T19:44:10.528Z,7.43
2019-03-25T19:45:10.513Z,7.39
2019-03-25T19:46:10.503Z,7.39
2019-03-25T19:47:10.533Z,7.39
2019-03-25T19:48:10.494Z,7.38
2019-03-25T19:49:10.559Z,7.38
2019-03-25T19:50:10.473Z,7.40
2019-03-25T19:51:10.452Z,7.43
2019-03-25T19:52:10.445Z,7.42
2019-03-25T19:53:18.955Z,7.43
2019-03-25T19:54:11.444Z,7.43
2019-03-25T19:55:10.419Z,7.42
2019-03-25T19:56:10.420Z,7.48
2019-03-25T19:57:10.428Z,7.47
2019-03-25T19:58:10.375Z,7.33
2019-03-25T19:59:10.387Z,7.51
2019-03-25T20:00:10.406Z,7.50
2019-03-25T20:01:10.381Z,7.45
2019-03-25T20:02:18.897Z,7.54
2019-03-25T20:03:11.337Z,7.48
2019-03-25T20:04:10.316Z,7.53
2019-03-25T20:05:10.303Z,7.56
2019-03-25T20:06:10.359Z,7.54
2019-03-25T20:07:10.310Z,7.56
2019-03-25T20:08:10.269Z,7.56
2019-03-25T20:09:10.260Z,7.50
2019-03-25T20:18:30.457Z,7.42
2019-03-25T20:21:09.340Z,7.33
2019-03-25T20:26:26.515Z,7.29
2019-03-25T20:27:22.920Z,7.24
2019-03-25T20:31:40.384Z,7.25
2019-03-25T20:38:11.480Z,7.17
2019-03-25T20:47:00.701Z,7.05
2019-03-25T22:22:23.876Z,6.77
2019-03-25T22:23:23.854Z,6.70
2019-03-25T23:09:59.014Z,6.30
2019-03-25T23:10:58.910Z,6.28
2019-03-25T23:11:58.903Z,6.41
2019-03-25T23:12:58.910Z,6.33
2019-03-25T23:13:58.883Z,6.39
2019-03-25T23:14:58.874Z,6.42
2019-03-25T23:15:58.861Z,6.46
2019-03-25T23:16:58.858Z,6.49
2019-03-25T23:17:58.842Z,6.46
2019-03-25T23:18:58.847Z,6.54
2019-03-25T23:19:58.830Z,6.52
2019-03-25T23:20:58.810Z,6.56
2019-03-25T23:21:58.798Z,6.63
2019-03-25T23:22:58.786Z,6.59
2019-03-25T23:23:58.796Z,6.63
2019-03-25T23:24:58.770Z,6.67
2019-03-25T23:25:58.762Z,6.63
2019-03-25T23:26:58.752Z,6.69
2019-03-25T23:27:58.738Z,6.67
2019-03-25T23:28:58.726Z,6.72
2019-03-25T23:29:58.727Z,6.70
2019-03-25T23:30:58.709Z,6.75
2019-03-25T23:31:58.695Z,6.70
2019-03-25T23:32:58.683Z,6.72
2019-03-25T23:33:58.669Z,6.77
2019-03-25T23:34:58.680Z,6.78
2019-03-25T23:35:58.645Z,6.75
2019-03-25T23:36:58.652Z,6.81
2019-03-25T23:37:58.633Z,6.79
2019-03-25T23:38:58.622Z,6.82
2019-03-25T23:39:58.612Z,6.77
2019-03-25T23:40:58.616Z,6.81
2019-03-25T23:41:58.583Z,6.79
2019-03-25T23:42:58.579Z,6.82
2019-03-25T23:43:58.571Z,6.87
2019-03-25T23:44:58.552Z,6.84
2019-03-25T23:45:58.547Z,6.85
2019-03-25T23:46:58.564Z,6.77
2019-03-25T23:47:58.522Z,6.82
2019-03-25T23:48:58.513Z,6.78
2019-03-25T23:49:58.509Z,6.78
2019-03-25T23:50:58.492Z,6.79
2019-03-25T23:51:58.498Z,6.74
2019-03-25T23:52:58.470Z,6.82
2019-03-25T23:53:58.464Z,6.75
2019-03-25T23:54:58.445Z,6.81
2019-03-25T23:55:58.435Z,6.75
2019-03-25T23:56:58.443Z,6.75
2019-03-25T23:57:58.416Z,6.81
2019-03-25T23:58:58.409Z,6.72
2019-03-25T23:59:58.399Z,6.77
